createdAt,value
2018-07-15T00:01:36.356Z,12.50
2018-07-15T00:04:05.557Z,12.50
2018-07-15T00:06:34.751Z,12.50
2018-07-15T00:09:05.075Z,12.50
2018-07-15T00:11:34.196Z,12.50
2018-07-15T00:14:03.340Z,12.50
2018-07-15T00:16:32.512Z,12.40
2018-07-15T00:19:01.659Z,12.30
2018-07-15T00:21:30.804Z,12.30
2018-07-15T00:23:59.926Z,12.20
2018-07-15T00:26:29.091Z,12.20
2018-07-15T00:28:58.240Z,11.70
2018-07-15T00:31:27.380Z,11.40
2018-07-15T00:33:56.535Z,11.40
2018-07-15T00:36:25.804Z,11.40
2018-07-15T00:38:54.929Z,11.40
2018-07-15T00:41:24.120Z,11.30
2018-07-15T00:43:53.241Z,11.20
2018-07-15T00:46:22.367Z,11.30
2018-07-15T00:48:51.618Z,11.40
2018-07-15T00:51:20.755Z,11.50
2018-07-15T00:53:50.016Z,11.60
2018-07-15T00:56:19.864Z,11.60
2018-07-15T00:58:49.087Z,11.60
2018-07-15T01:01:18.195Z,11.70
2018-07-15T01:03:47.847Z,11.70
2018-07-15T01:08:45.706Z,11.70
2018-07-15T01:11:14.857Z,11.70
2018-07-15T01:13:44.106Z,11.70
2018-07-15T01:16:13.239Z,11.80
2018-07-15T01:18:42.395Z,11.90
2018-07-15T01:21:11.565Z,11.80
2018-07-15T01:23:40.707Z,11.80
2018-07-15T01:26:10.094Z,11.70
2018-07-15T01:28:39.218Z,11.70
2018-07-15T01:33:37.987Z,11.60
2018-07-15T01:36:07.168Z,11.60
2018-07-15T01:38:36.297Z,11.60
2018-07-15T01:41:05.379Z,11.60
2018-07-15T01:43:34.531Z,11.60
2018-07-15T01:46:03.659Z,11.50
2018-07-15T01:48:32.790Z,11.40
2018-07-15T01:51:01.916Z,11.40
2018-07-15T01:53:31.058Z,11.40
2018-07-15T01:56:00.207Z,11.40
2018-07-15T01:58:29.314Z,11.40
2018-07-15T02:00:58.442Z,11.40
2018-07-15T02:03:27.571Z,11.40
2018-07-15T02:05:56.676Z,11.40
2018-07-15T02:08:25.828Z,11.40
2018-07-15T02:10:55.192Z,11.40
2018-07-15T02:13:24.321Z,11.50
2018-07-15T02:15:53.500Z,11.50
2018-07-15T02:18:22.622Z,11.60
2018-07-15T02:20:51.839Z,11.70
2018-07-15T02:23:21.076Z,11.70
2018-07-15T02:25:50.189Z,11.70
2018-07-15T02:28:19.321Z,11.70
2018-07-15T02:30:48.424Z,11.70
2018-07-15T02:33:17.762Z,11.80
2018-07-15T02:35:46.940Z,11.90
2018-07-15T02:38:16.029Z,11.90
2018-07-15T02:40:45.187Z,11.90
2018-07-15T02:43:14.307Z,12.00
2018-07-15T02:45:43.417Z,12.00
2018-07-15T02:48:12.578Z,12.00
2018-07-15T02:50:41.813Z,12.00
2018-07-15T02:53:10.940Z,12.10
2018-07-15T02:55:40.102Z,12.10
2018-07-15T02:58:09.238Z,12.00
2018-07-15T03:00:38.420Z,12.00
2018-07-15T03:03:08.036Z,12.00
2018-07-15T03:08:06.008Z,12.00
2018-07-15T03:10:35.103Z,12.00
2018-07-15T03:13:04.241Z,12.00
2018-07-15T03:15:33.432Z,12.00
2018-07-15T03:18:02.681Z,12.00
2018-07-15T03:20:31.916Z,12.00
2018-07-15T03:23:01.093Z,12.00
2018-07-15T03:25:30.239Z,12.00
2018-07-15T03:27:59.407Z,11.90
2018-07-15T03:30:28.570Z,12.00
2018-07-15T03:32:57.695Z,12.00
2018-07-15T03:35:26.819Z,12.00
2018-07-15T03:37:55.946Z,12.00
2018-07-15T03:40:25.124Z,12.00
2018-07-15T03:42:54.313Z,12.00
2018-07-15T03:45:23.504Z,12.00
2018-07-15T03:47:52.652Z,12.00
2018-07-15T03:50:21.843Z,11.80
2018-07-15T03:52:50.972Z,11.70
2018-07-15T03:55:20.188Z,11.50
2018-07-15T03:57:49.325Z,11.20
2018-07-15T04:00:18.510Z,11.10
2018-07-15T04:02:47.617Z,11.00
2018-07-15T04:05:16.841Z,11.10
2018-07-15T04:07:45.950Z,11.20
2018-07-15T04:10:15.215Z,11.30
2018-07-15T04:12:44.376Z,11.30
2018-07-15T04:15:13.584Z,11.30
2018-07-15T04:17:42.695Z,11.30
2018-07-15T04:20:11.997Z,11.30
2018-07-15T04:22:41.136Z,11.30
2018-07-15T04:25:10.291Z,11.40
2018-07-15T04:27:39.472Z,11.50
2018-07-15T04:30:08.636Z,11.70
2018-07-15T04:32:37.786Z,11.80
2018-07-15T04:35:06.942Z,12.00
2018-07-15T04:37:36.154Z,12.20
2018-07-15T04:40:05.369Z,12.30
2018-07-15T04:42:34.546Z,12.50
2018-07-15T04:45:03.665Z,12.60
2018-07-15T04:47:32.807Z,12.80
2018-07-15T04:50:01.960Z,12.90
2018-07-15T04:52:31.971Z,13.00
2018-07-15T04:55:01.100Z,13.10
2018-07-15T04:57:30.545Z,13.20
2018-07-15T04:59:59.690Z,13.30
2018-07-15T05:02:28.935Z,13.40
2018-07-15T05:04:58.060Z,13.60
2018-07-15T05:07:27.343Z,13.70
2018-07-15T05:09:56.572Z,13.80
2018-07-15T05:12:25.727Z,13.90
2018-07-15T05:14:54.879Z,14.10
2018-07-15T05:17:24.023Z,14.10
2018-07-15T05:19:53.186Z,14.20
2018-07-15T05:22:22.320Z,14.30
2018-07-15T05:24:51.452Z,14.40
2018-07-15T05:27:20.583Z,14.50
2018-07-15T05:29:50.262Z,14.50
2018-07-15T05:32:19.441Z,14.60
2018-07-15T05:34:48.657Z,14.70
2018-07-15T05:37:17.803Z,14.80
2018-07-15T05:39:46.920Z,14.90
2018-07-15T05:42:16.085Z,15.10
2018-07-15T05:44:45.220Z,15.20
2018-07-15T05:47:14.477Z,15.30
2018-07-15T05:49:43.648Z,15.30
2018-07-15T05:52:12.840Z,15.50
2018-07-15T05:54:42.014Z,15.40
2018-07-15T05:57:11.224Z,15.60
2018-07-15T05:59:40.316Z,15.70
2018-07-15T06:02:09.512Z,15.80
2018-07-15T06:04:38.646Z,15.90
2018-07-15T06:07:07.795Z,16.10
2018-07-15T06:09:37.093Z,16.10
2018-07-15T06:12:06.247Z,16.10
2018-07-15T06:14:35.414Z,16.30
2018-07-15T06:17:04.746Z,16.30
2018-07-15T06:19:34.559Z,16.40
2018-07-15T06:22:03.907Z,16.40
2018-07-15T06:24:33.020Z,16.60
2018-07-15T06:27:02.186Z,16.70
2018-07-15T06:29:31.351Z,16.80
2018-07-15T06:32:00.487Z,16.80
2018-07-15T06:34:29.662Z,16.90
2018-07-15T06:36:58.816Z,17.00
2018-07-15T06:39:28.099Z,17.00
2018-07-15T06:41:57.284Z,17.30
2018-07-15T06:44:26.426Z,17.20
2018-07-15T06:46:55.688Z,17.40
2018-07-15T06:49:24.880Z,17.60
2018-07-15T06:51:54.126Z,17.70
2018-07-15T06:54:23.233Z,17.70
2018-07-15T06:56:52.377Z,17.80
2018-07-15T06:59:21.690Z,18.00
2018-07-15T07:01:50.903Z,18.10
2018-07-15T07:04:20.075Z,18.30
2018-07-15T07:06:49.221Z,18.60
2018-07-15T07:09:18.321Z,18.70
2018-07-15T07:11:47.507Z,18.70
2018-07-15T07:14:16.691Z,18.60
2018-07-15T07:16:45.734Z,18.60
2018-07-15T07:19:14.861Z,18.80
2018-07-15T07:21:44.080Z,18.70
2018-07-15T07:24:13.168Z,18.80
2018-07-15T07:26:42.354Z,19.00
2018-07-15T07:29:11.513Z,19.10
2018-07-15T07:31:40.660Z,19.20
2018-07-15T07:34:09.824Z,19.40
2018-07-15T07:36:38.994Z,19.60
2018-07-15T07:39:08.139Z,19.70
2018-07-15T07:44:06.249Z,19.90
2018-07-15T07:46:35.459Z,20.00
2018-07-15T07:49:04.667Z,20.10
2018-07-15T07:51:33.935Z,20.20
2018-07-15T07:54:03.160Z,20.10
2018-07-15T07:56:32.354Z,20.20
2018-07-15T07:59:01.498Z,20.30
2018-07-15T08:01:30.587Z,20.20
2018-07-15T08:03:59.745Z,20.10
2018-07-15T08:06:28.897Z,20.10
2018-07-15T08:08:58.060Z,20.30
2018-07-15T08:11:27.212Z,20.40
2018-07-15T08:16:25.112Z,20.90
2018-07-15T08:18:54.256Z,21.10
2018-07-15T08:21:23.333Z,21.10
2018-07-15T08:23:52.487Z,21.20
2018-07-15T08:26:21.768Z,21.20
2018-07-15T08:28:51.149Z,21.30
2018-07-15T08:31:20.758Z,21.60
2018-07-15T08:33:49.874Z,21.60
2018-07-15T08:36:18.998Z,21.70
2018-07-15T08:38:48.161Z,21.50
2018-07-15T08:41:17.307Z,21.70
2018-07-15T08:43:46.447Z,21.80
2018-07-15T08:46:15.560Z,21.90
2018-07-15T08:48:44.712Z,21.90
2018-07-15T08:53:42.543Z,22.20
2018-07-15T08:56:11.670Z,22.50
2018-07-15T08:58:40.764Z,22.60
2018-07-15T09:01:10.024Z,22.70
2018-07-15T09:03:39.257Z,22.90
2018-07-15T09:06:08.393Z,22.40
2018-07-15T09:08:37.663Z,22.70
2018-07-15T09:11:06.844Z,23.00
2018-07-15T09:13:36.052Z,23.00
2018-07-15T09:16:05.162Z,23.00
2018-07-15T09:18:34.391Z,23.40
2018-07-15T09:21:03.685Z,23.20
2018-07-15T09:23:32.832Z,23.10
2018-07-15T09:26:02.048Z,23.50
2018-07-15T09:28:31.922Z,23.60
2018-07-15T09:31:01.521Z,23.80
2018-07-15T09:33:30.702Z,23.90
2018-07-15T09:35:59.880Z,24.10
2018-07-15T09:38:29.108Z,24.20
2018-07-15T09:40:58.298Z,24.60
2018-07-15T09:45:56.173Z,24.80
2018-07-15T09:48:25.308Z,24.90
2018-07-15T09:50:54.736Z,24.90
2018-07-15T09:53:23.918Z,24.50
2018-07-15T09:55:53.037Z,24.60
2018-07-15T10:00:56.608Z,24.70
2018-07-15T10:03:27.052Z,24.60
2018-07-15T10:05:56.312Z,24.80
2018-07-15T10:08:25.449Z,25.00
2018-07-15T10:10:54.635Z,24.90
2018-07-15T10:13:23.859Z,25.30
2018-07-15T10:15:53.059Z,25.30
2018-07-15T10:18:22.270Z,25.40
2018-07-15T10:20:52.158Z,25.40
2018-07-15T10:23:21.324Z,25.90
2018-07-15T10:25:50.497Z,25.90
2018-07-15T10:28:19.699Z,25.80
2018-07-15T10:30:48.853Z,26.00
2018-07-15T10:33:18.070Z,25.50
2018-07-15T10:35:47.253Z,25.50
2018-07-15T10:38:16.398Z,25.50
2018-07-15T10:40:45.665Z,25.70
2018-07-15T10:43:14.820Z,25.70
2018-07-15T10:45:44.091Z,25.90
2018-07-15T10:48:13.275Z,26.30
2018-07-15T10:50:42.464Z,26.60
2018-07-15T10:53:11.674Z,26.50
2018-07-15T10:55:40.956Z,26.50
2018-07-15T10:58:10.184Z,26.60
2018-07-15T11:00:39.439Z,26.70
2018-07-15T11:03:08.624Z,27.00
2018-07-15T11:05:37.841Z,26.70
2018-07-15T11:08:07.010Z,26.90
2018-07-15T11:10:36.165Z,26.70
2018-07-15T11:13:05.944Z,26.80
2018-07-15T11:15:35.074Z,26.80
2018-07-15T11:18:04.323Z,27.00
2018-07-15T11:20:33.549Z,27.10
2018-07-15T11:23:02.755Z,26.80
2018-07-15T11:25:31.895Z,27.00
2018-07-15T11:28:01.241Z,27.00
2018-07-15T11:30:30.605Z,27.30
2018-07-15T11:32:59.752Z,27.40
2018-07-15T11:35:28.872Z,27.10
2018-07-15T11:37:58.049Z,27.30
2018-07-15T11:40:27.174Z,27.10
2018-07-15T11:42:56.334Z,27.10
2018-07-15T11:45:25.544Z,27.00
2018-07-15T11:47:54.718Z,27.10
2018-07-15T11:50:23.868Z,27.40
2018-07-15T11:52:53.071Z,27.70
2018-07-15T11:55:22.233Z,27.90
2018-07-15T11:57:51.508Z,27.70
2018-07-15T12:00:20.667Z,27.90
2018-07-15T12:02:49.955Z,28.00
2018-07-15T12:05:19.116Z,28.10
2018-07-15T12:07:48.372Z,28.00
2018-07-15T12:10:18.265Z,27.90
2018-07-15T12:12:47.481Z,28.20
2018-07-15T12:15:17.301Z,28.40
2018-07-15T12:17:46.501Z,28.20
2018-07-15T12:20:15.725Z,28.40
2018-07-15T12:22:44.957Z,28.20
2018-07-15T12:25:14.151Z,28.50
2018-07-15T12:27:44.110Z,28.30
2018-07-15T12:30:13.935Z,28.00
2018-07-15T12:32:43.652Z,28.40
2018-07-15T12:35:12.899Z,28.50
2018-07-15T12:37:42.036Z,28.70
2018-07-15T12:40:11.189Z,28.70
2018-07-15T12:42:40.377Z,28.40
2018-07-15T12:45:09.638Z,28.90
2018-07-15T12:47:38.813Z,29.10
2018-07-15T12:50:08.730Z,28.80
2018-07-15T12:52:37.940Z,29.10
2018-07-15T12:55:07.161Z,29.30
2018-07-15T12:57:36.426Z,28.80
2018-07-15T13:00:06.214Z,29.10
2018-07-15T13:02:35.424Z,29.00
2018-07-15T13:05:04.607Z,29.20
2018-07-15T13:07:33.696Z,29.20
2018-07-15T13:10:02.950Z,29.10
2018-07-15T13:12:32.108Z,29.00
2018-07-15T13:15:01.268Z,28.50
2018-07-15T13:17:30.698Z,28.60
2018-07-15T13:19:59.857Z,29.20
2018-07-15T13:22:29.126Z,28.90
2018-07-15T13:24:58.316Z,28.40
2018-07-15T13:27:27.608Z,28.40
2018-07-15T13:29:56.874Z,28.60
2018-07-15T13:32:26.090Z,28.40
2018-07-15T13:34:55.236Z,28.40
2018-07-15T13:37:24.369Z,28.60
2018-07-15T13:39:53.600Z,29.10
2018-07-15T13:42:22.760Z,28.50
2018-07-15T13:44:52.032Z,28.30
2018-07-15T13:47:21.238Z,28.70
2018-07-15T13:49:50.383Z,28.70
2018-07-15T13:52:19.561Z,28.90
2018-07-15T13:54:48.706Z,28.80
2018-07-15T13:57:17.858Z,28.70
2018-07-15T13:59:47.008Z,28.90
2018-07-15T14:02:16.136Z,28.80
2018-07-15T14:04:46.039Z,28.50
2018-07-15T14:07:15.220Z,28.80
2018-07-15T14:09:44.482Z,28.70
2018-07-15T14:12:13.652Z,28.60
2018-07-15T14:14:42.811Z,28.60
2018-07-15T14:17:11.980Z,28.50
2018-07-15T14:19:41.099Z,28.10
2018-07-15T14:22:10.332Z,28.00
2018-07-15T14:24:39.513Z,28.10
2018-07-15T14:27:08.707Z,28.30
2018-07-15T14:29:37.959Z,28.60
2018-07-15T14:32:07.205Z,28.20
2018-07-15T14:34:36.416Z,28.60
2018-07-15T14:37:05.688Z,28.50
2018-07-15T14:39:38.342Z,28.70
2018-07-15T14:42:08.084Z,28.30
2018-07-15T14:44:38.610Z,28.10
2018-07-15T14:49:36.632Z,27.80
2018-07-15T14:52:06.431Z,27.90
2018-07-15T14:54:35.657Z,27.30
2018-07-15T14:57:04.930Z,27.70
2018-07-15T14:59:34.040Z,28.00
2018-07-15T15:02:03.348Z,27.90
2018-07-15T15:04:32.508Z,27.60
2018-07-15T15:07:01.697Z,27.50
2018-07-15T15:09:31.030Z,27.40
2018-07-15T15:12:00.190Z,27.10
2018-07-15T15:14:30.968Z,27.00
2018-07-15T15:17:00.413Z,27.00
2018-07-15T15:19:29.595Z,27.10
2018-07-15T15:21:58.772Z,27.00
2018-07-15T15:24:28.202Z,26.90
2018-07-15T15:26:57.436Z,26.80
2018-07-15T15:29:27.329Z,26.50
2018-07-15T15:31:56.506Z,26.40
2018-07-15T15:34:25.715Z,26.30
2018-07-15T15:36:54.908Z,26.30
2018-07-15T15:39:24.182Z,26.20
2018-07-15T15:41:53.674Z,26.40
2018-07-15T15:44:22.806Z,26.20
2018-07-15T15:46:51.999Z,26.30
2018-07-15T15:49:21.151Z,26.20
2018-07-15T15:51:50.332Z,25.90
2018-07-15T15:54:19.542Z,26.10
2018-07-15T15:56:48.709Z,26.10
2018-07-15T15:59:17.864Z,26.10
2018-07-15T16:01:47.037Z,26.00
2018-07-15T16:04:16.218Z,25.90
2018-07-15T16:06:45.470Z,25.70
2018-07-15T16:09:14.696Z,25.80
2018-07-15T16:11:43.912Z,25.70
2018-07-15T16:16:41.902Z,25.80
2018-07-15T16:19:11.033Z,25.70
2018-07-15T16:21:40.185Z,25.50
2018-07-15T16:24:09.440Z,25.60
2018-07-15T16:26:38.593Z,25.60
2018-07-15T16:29:07.797Z,25.40
2018-07-15T16:31:36.984Z,25.20
2018-07-15T16:34:06.322Z,25.20
2018-07-15T16:36:35.515Z,25.30
2018-07-15T16:39:05.344Z,25.20
2018-07-15T16:41:34.711Z,25.40
2018-07-15T16:44:10.700Z,25.40
2018-07-15T16:46:39.897Z,25.30
2018-07-15T16:51:37.973Z,25.10
2018-07-15T16:54:07.112Z,24.90
2018-07-15T16:56:36.307Z,24.80
2018-07-15T16:59:05.521Z,24.80
2018-07-15T17:01:34.746Z,24.70
2018-07-15T17:04:03.950Z,24.80
2018-07-15T17:06:33.877Z,25.00
2018-07-15T17:09:03.455Z,24.80
2018-07-15T17:11:32.677Z,24.70
2018-07-15T17:14:02.080Z,24.90
2018-07-15T17:16:31.212Z,24.90
2018-07-15T17:19:00.364Z,24.80
2018-07-15T17:21:29.592Z,25.00
2018-07-15T17:23:58.743Z,24.90
2018-07-15T17:28:57.298Z,24.40
2018-07-15T17:31:26.449Z,24.30
2018-07-15T17:33:55.655Z,24.20
2018-07-15T17:36:24.844Z,24.10
2018-07-15T17:38:54.562Z,24.30
2018-07-15T17:41:23.795Z,24.10
2018-07-15T17:43:52.938Z,24.10
2018-07-15T17:46:22.305Z,24.10
2018-07-15T17:48:51.371Z,24.20
2018-07-15T17:51:20.587Z,24.20
2018-07-15T17:53:50.402Z,24.20
2018-07-15T17:56:19.560Z,24.10
2018-07-15T17:58:48.799Z,24.00
2018-07-15T18:01:17.922Z,24.00
2018-07-15T18:03:47.023Z,24.00
2018-07-15T18:06:16.272Z,23.90
2018-07-15T18:08:45.442Z,23.90
2018-07-15T18:11:14.588Z,23.90
2018-07-15T18:13:43.729Z,24.00
2018-07-15T18:16:12.925Z,24.00
2018-07-15T18:18:42.024Z,23.90
2018-07-15T18:21:11.201Z,23.70
2018-07-15T18:23:40.363Z,23.60
2018-07-15T18:26:09.516Z,23.80
2018-07-15T18:28:39.713Z,23.50
2018-07-15T18:31:08.941Z,23.40
2018-07-15T18:33:38.151Z,23.20
2018-07-15T18:36:07.336Z,23.00
2018-07-15T18:38:36.507Z,22.50
2018-07-15T18:41:05.752Z,22.10
2018-07-15T18:43:35.265Z,21.90
2018-07-15T18:46:04.813Z,21.60
2018-07-15T18:48:34.229Z,21.50
2018-07-15T18:51:03.609Z,21.30
2018-07-15T18:53:32.732Z,21.10
2018-07-15T18:56:01.953Z,20.90
2018-07-15T18:58:31.198Z,20.80
2018-07-15T19:01:00.434Z,20.80
2018-07-15T19:03:29.707Z,20.60
2018-07-15T19:05:58.873Z,20.60
2018-07-15T19:08:28.048Z,20.50
2018-07-15T19:10:57.334Z,20.50
2018-07-15T19:13:26.542Z,20.40
2018-07-15T19:15:55.808Z,20.40
2018-07-15T19:18:24.943Z,20.10
2018-07-15T19:20:54.743Z,19.80
2018-07-15T19:23:23.899Z,19.60
2018-07-15T19:25:53.076Z,19.40
2018-07-15T19:28:22.258Z,19.20
2018-07-15T19:33:20.195Z,19.00
2018-07-15T19:35:49.432Z,18.90
2018-07-15T19:38:18.568Z,18.80
2018-07-15T19:40:47.721Z,18.70
2018-07-15T19:43:16.864Z,18.60
2018-07-15T19:45:46.080Z,18.60
2018-07-15T19:48:15.192Z,18.50
2018-07-15T19:50:44.323Z,18.40
2018-07-15T19:53:13.496Z,18.40
2018-07-15T19:55:42.668Z,18.20
2018-07-15T19:58:11.897Z,18.10
2018-07-15T20:00:41.093Z,18.00
2018-07-15T20:03:10.259Z,18.00
2018-07-15T20:05:39.628Z,17.90
2018-07-15T20:08:08.777Z,17.80
2018-07-15T20:10:38.506Z,17.80
2018-07-15T20:13:07.823Z,17.80
2018-07-15T20:15:37.590Z,17.80
2018-07-15T20:18:07.496Z,17.80
2018-07-15T20:20:36.788Z,17.80
2018-07-15T20:23:06.048Z,18.10
2018-07-15T20:25:35.212Z,18.30
2018-07-15T20:28:04.409Z,18.30
2018-07-15T20:30:33.532Z,18.20
2018-07-15T20:33:02.691Z,18.20
2018-07-15T20:35:31.853Z,18.10
2018-07-15T20:38:01.012Z,18.00
2018-07-15T20:40:30.199Z,18.00
2018-07-15T20:42:59.851Z,17.90
2018-07-15T20:45:29.105Z,17.80
2018-07-15T20:47:58.270Z,17.80
2018-07-15T20:50:27.452Z,17.70
2018-07-15T20:52:56.534Z,17.70
2018-07-15T20:55:25.692Z,17.60
2018-07-15T20:57:54.812Z,17.60
2018-07-15T21:00:24.028Z,17.50
2018-07-15T21:02:53.176Z,17.30
2018-07-15T21:05:22.275Z,17.30
2018-07-15T21:07:51.452Z,17.30
2018-07-15T21:10:20.681Z,17.20
2018-07-15T21:12:49.941Z,17.20
2018-07-15T21:15:19.338Z,17.20
2018-07-15T21:17:51.401Z,17.10
2018-07-15T21:20:20.614Z,17.00
2018-07-15T21:22:50.464Z,16.90
2018-07-15T21:25:19.578Z,16.80
2018-07-15T21:27:48.712Z,16.80
2018-07-15T21:30:17.845Z,16.70
2018-07-15T21:32:46.960Z,16.60
2018-07-15T21:35:16.176Z,16.50
2018-07-15T21:37:45.375Z,16.50
2018-07-15T21:40:14.543Z,16.50
2018-07-15T21:42:44.136Z,16.40
2018-07-15T21:45:13.362Z,16.40
2018-07-15T21:47:42.594Z,16.30
2018-07-15T21:50:11.777Z,16.20
2018-07-15T21:52:40.963Z,16.20
2018-07-15T21:55:10.168Z,16.10
2018-07-15T21:57:39.379Z,16.10
2018-07-15T22:00:09.115Z,16.30
2018-07-15T22:02:38.353Z,16.30
2018-07-15T22:05:07.483Z,16.30
2018-07-15T22:07:47.824Z,16.30
2018-07-15T22:10:29.953Z,16.40
2018-07-15T22:12:59.172Z,16.30
2018-07-15T22:15:28.392Z,16.30
2018-07-15T22:17:57.603Z,16.20
2018-07-15T22:20:26.727Z,16.10
2018-07-15T22:22:55.894Z,16.00
2018-07-15T22:25:25.047Z,16.00
2018-07-15T22:27:54.153Z,16.10
2018-07-15T22:30:23.320Z,16.00
2018-07-15T22:32:52.422Z,16.10
2018-07-15T22:35:21.567Z,16.00
2018-07-15T22:37:50.765Z,16.00
2018-07-15T22:40:20.059Z,15.90
2018-07-15T22:42:49.207Z,15.80
2018-07-15T22:45:18.339Z,15.70
2018-07-15T22:47:47.461Z,15.60
2018-07-15T22:50:16.582Z,15.70
2018-07-15T22:52:45.743Z,15.70
2018-07-15T22:55:14.931Z,15.70
2018-07-15T22:57:44.082Z,15.60
2018-07-15T23:00:13.328Z,15.50
2018-07-15T23:02:42.560Z,15.50
2018-07-15T23:05:52.089Z,15.60
2018-07-15T23:08:21.780Z,15.60
2018-07-15T23:10:50.980Z,15.50
2018-07-15T23:13:20.559Z,15.50
2018-07-15T23:15:50.199Z,15.40
2018-07-15T23:18:19.418Z,15.40
2018-07-15T23:20:49.211Z,15.40
2018-07-15T23:23:18.425Z,15.40
2018-07-15T23:25:47.572Z,15.40
2018-07-15T23:28:17.619Z,15.40
2018-07-15T23:30:46.879Z,15.40
2018-07-15T23:33:16.236Z,15.40
2018-07-15T23:38:14.117Z,15.30
2018-07-15T23:40:43.237Z,15.30
2018-07-15T23:43:12.468Z,15.20
2018-07-15T23:45:41.701Z,15.20
2018-07-15T23:48:10.876Z,15.10
2018-07-15T23:50:40.089Z,15.10
2018-07-15T23:53:09.205Z,15.10
2018-07-15T23:55:38.320Z,15.10
2018-07-15T23:58:07.522Z,15.10
